Time;durP1;ratioP1;P1;durP2;ratioP2;P2;SDS_P1;SDS_P2;PMS_P1;PMS_P2;Temp;Humidity;BMP_temperature;BMP_pressure;BME280_temperature;BME280_humidity;BME280_pressure;Samples;Min_cycle;Max_cycle;Signal;HPM_P1;HPM_P2
2023/09/06 00:00:52;;;;;;;5.90;3.47;;;;;;;;;;6185396;23;20068;-69
2023/09/06 00:03:19;;;;;;;8.23;3.20;;;;;;;;;;6159102;23;20084;-69
2023/09/06 00:05:46;;;;;;;5.28;2.67;;;;;;;;;;6185223;23;20072;-69
2023/09/06 00:08:14;;;;;;;6.55;2.80;;;;;;;;;;6185098;23;20076;-69
2023/09/06 00:10:41;;;;;;;3.78;2.80;;;;;;;;;;6185245;23;20084;-69
2023/09/06 00:13:07;;;;;;;4.28;2.90;;;;;;;;;;6184865;23;20072;-69
2023/09/06 00:15:35;;;;;;;6.15;3.08;;;;;;;;;;6185133;23;20091;-69
2023/09/06 00:18:05;;;;;;;7.72;3.08;;;;;;;;;;6185117;23;20080;-69
2023/09/06 00:20:34;;;;;;;6.28;3.00;;;;;;;;;;6184970;23;20072;-69
2023/09/06 00:23:04;;;;;;;3.17;2.65;;;;;;;;;;6184970;23;20451;-69
2023/09/06 00:25:31;;;;;;;4.75;2.78;;;;;;;;;;6185017;23;20080;-69
2023/09/06 00:27:59;;;;;;;5.28;2.63;;;;;;;;;;6184593;23;20085;-69
2023/09/06 00:30:25;;;;;;;4.43;2.60;;;;;;;;;;6184944;23;20072;-69
2023/09/06 00:32:52;;;;;;;3.92;3.05;;;;;;;;;;6185039;23;20072;-69
2023/09/06 00:35:19;;;;;;;5.75;2.70;;;;;;;;;;6184888;23;20087;-69
2023/09/06 00:37:46;;;;;;;4.25;2.95;;;;;;;;;;6158725;23;20080;-69
2023/09/06 00:40:19;;;;;;;2.72;2.28;;;;;;;;;;6184912;23;20072;-69
2023/09/06 00:42:46;;;;;;;8.00;3.00;;;;;;;;;;6184456;23;20073;-68
2023/09/06 00:45:13;;;;;;;5.65;3.20;;;;;;;;;;6184781;23;20123;-69
2023/09/06 00:47:42;;;;;;;3.60;2.92;;;;;;;;;;6184756;23;20076;-69
2023/09/06 00:50:10;;;;;;;6.68;3.22;;;;;;;;;;6184821;23;20080;-69
2023/09/06 00:52:37;;;;;;;5.03;2.88;;;;;;;;;;6184424;23;20080;-69
2023/09/06 00:55:04;;;;;;;5.50;2.83;;;;;;;;;;6184948;23;20104;-69
2023/09/06 00:57:32;;;;;;;7.30;2.88;;;;;;;;;;6184465;23;20076;-69
2023/09/06 00:59:58;;;;;;;6.03;3.17;;;;;;;;;;6184613;23;20076;-69
2023/09/06 01:02:25;;;;;;;4.40;2.63;;;;;;;;;;6184656;23;20080;-69
2023/09/06 01:04:51;;;;;;;5.53;3.15;;;;;;;;;;6184752;23;20077;-69
2023/09/06 01:07:18;;;;;;;3.33;2.70;;;;;;;;;;6158222;23;20519;-69
2023/09/06 01:09:45;;;;;;;6.20;3.00;;;;;;;;;;6184624;23;20072;-69
2023/09/06 01:12:13;;;;;;;4.95;3.00;;;;;;;;;;6184207;23;20491;-69
2023/09/06 01:14:41;;;;;;;6.32;2.67;;;;;;;;;;6184596;23;20096;-69
2023/09/06 01:17:12;;;;;;;4.90;2.95;;;;;;;;;;6184526;23;20072;-69
2023/09/06 01:19:40;;;;;;;4.40;3.00;;;;;;;;;;6158624;23;20080;-68
2023/09/06 01:22:26;;;;;;;7.80;2.65;;;;;;;;;;6184414;23;20072;-69
2023/09/06 01:24:53;;;;;;;5.15;3.00;;;;;;;;;;6184624;23;20080;-69
2023/09/06 01:27:20;;;;;;;6.32;2.55;;;;;;;;;;6184032;23;20087;-69
2023/09/06 01:29:46;;;;;;;8.13;3.15;;;;;;;;;;6184373;23;20403;-69
2023/09/06 01:32:13;;;;;;;4.47;3.20;;;;;;;;;;6184700;23;20118;-69
2023/09/06 01:34:39;;;;;;;4.13;3.00;;;;;;;;;;6184416;23;20448;-69
2023/09/06 01:37:05;;;;;;;15.40;3.83;;;;;;;;;;6184431;23;20080;-69
2023/09/06 01:39:31;;;;;;;4.80;2.80;;;;;;;;;;6184454;23;20072;-68
2023/09/06 01:41:58;;;;;;;6.63;3.03;;;;;;;;;;6183996;23;20084;-69
2023/09/06 01:44:26;;;;;;;5.55;2.97;;;;;;;;;;6184450;23;20068;-69
2023/09/06 01:46:53;;;;;;;4.20;2.80;;;;;;;;;;6184547;23;20080;-69
2023/09/06 01:49:19;;;;;;;4.53;3.40;;;;;;;;;;6184362;23;20496;-69
2023/09/06 01:51:45;;;;;;;5.70;3.10;;;;;;;;;;6184394;23;20076;-69
2023/09/06 01:54:12;;;;;;;4.07;2.65;;;;;;;;;;6184346;23;20515;-69
2023/09/06 01:56:38;;;;;;;4.32;2.90;;;;;;;;;;6183952;23;20119;-69
2023/09/06 01:59:04;;;;;;;4.13;2.92;;;;;;;;;;6184584;23;20084;-69
2023/09/06 02:01:31;;;;;;;4.38;3.03;;;;;;;;;;6184632;23;20080;-69
2023/09/06 02:03:58;;;;;;;4.35;2.97;;;;;;;;;;6184225;23;20071;-69
2023/09/06 02:06:24;;;;;;;9.30;2.72;;;;;;;;;;6186103;23;20076;-69
2023/09/06 02:08:51;;;;;;;3.53;3.03;;;;;;;;;;6186387;23;20520;-69
2023/09/06 02:11:17;;;;;;;4.30;2.90;;;;;;;;;;6186118;23;20503;-69
2023/09/06 02:13:44;;;;;;;7.20;3.20;;;;;;;;;;6186184;23;20076;-69
2023/09/06 02:16:12;;;;;;;9.10;3.13;;;;;;;;;;6186282;23;20084;-69
2023/09/06 02:18:38;;;;;;;4.00;3.03;;;;;;;;;;6186532;23;20072;-69
2023/09/06 02:21:04;;;;;;;6.53;3.10;;;;;;;;;;6186219;23;20106;-69
2023/09/06 02:23:31;;;;;;;4.40;3.13;;;;;;;;;;6185757;23;20091;-68
2023/09/06 02:25:57;;;;;;;4.78;2.83;;;;;;;;;;6186082;23;20080;-69
2023/09/06 02:28:23;;;;;;;5.65;2.58;;;;;;;;;;6186103;23;20072;-69
2023/09/06 02:30:49;;;;;;;4.70;2.90;;;;;;;;;;6186294;23;20079;-69
2023/09/06 02:33:16;;;;;;;4.25;2.78;;;;;;;;;;6159620;23;20079;-69
2023/09/06 02:35:43;;;;;;;5.28;2.85;;;;;;;;;;6186121;23;20013;-69
2023/09/06 02:38:13;;;;;;;3.88;2.75;;;;;;;;;;6186180;23;20075;-69
2023/09/06 02:40:42;;;;;;;8.30;3.13;;;;;;;;;;6185973;23;20071;-69
2023/09/06 02:43:13;;;;;;;3.97;3.08;;;;;;;;;;6186012;23;20488;-69
2023/09/06 02:45:40;;;;;;;6.65;3.33;;;;;;;;;;6159758;23;20079;-69
2023/09/06 02:48:07;;;;;;;3.78;2.90;;;;;;;;;;6185953;23;20092;-69
2023/09/06 02:50:36;;;;;;;5.80;3.35;;;;;;;;;;6185792;23;20076;-68
2023/09/06 02:53:03;;;;;;;5.15;2.90;;;;;;;;;;6185545;23;20080;-69
2023/09/06 02:55:35;;;;;;;4.88;2.72;;;;;;;;;;6185850;23;20092;-69
2023/09/06 02:58:01;;;;;;;4.65;2.88;;;;;;;;;;6185899;23;20068;-69
2023/09/06 03:00:29;;;;;;;4.85;2.95;;;;;;;;;;6159447;23;20084;-69
2023/09/06 03:02:58;;;;;;;4.90;2.95;;;;;;;;;;6159538;23;20073;-68
2023/09/06 03:05:27;;;;;;;5.45;3.03;;;;;;;;;;6185871;23;20488;-69
2023/09/06 03:07:56;;;;;;;9.35;3.00;;;;;;;;;;6185341;23;20076;-69
2023/09/06 03:10:23;;;;;;;5.78;3.00;;;;;;;;;;6185805;23;20515;-68
2023/09/06 03:12:58;;;;;;;6.00;3.35;;;;;;;;;;6185872;23;20080;-69
2023/09/06 03:15:29;;;;;;;4.30;3.08;;;;;;;;;;6185461;23;20092;-69
2023/09/06 03:17:58;;;;;;;6.20;2.85;;;;;;;;;;6185562;23;20131;-68
2023/09/06 03:20:32;;;;;;;4.10;2.88;;;;;;;;;;6185695;23;20080;-69
2023/09/06 03:23:00;;;;;;;5.85;3.13;;;;;;;;;;6158832;23;20087;-69
2023/09/06 03:25:27;;;;;;;4.43;3.25;;;;;;;;;;6185596;23;20508;-69
2023/09/06 03:28:04;;;;;;;4.70;3.05;;;;;;;;;;6185511;23;20075;-69
2023/09/06 03:30:30;;;;;;;3.92;3.10;;;;;;;;;;6185906;23;20116;-69
2023/09/06 03:32:58;;;;;;;5.75;3.30;;;;;;;;;;6185641;23;20434;-69
2023/09/06 03:35:24;;;;;;;6.03;3.05;;;;;;;;;;6185383;23;20092;-69
2023/09/06 03:37:51;;;;;;;5.75;3.70;;;;;;;;;;6185106;23;20361;-69
2023/09/06 03:40:34;;;;;;;3.35;2.80;;;;;;;;;;6185507;23;20511;-69
2023/09/06 03:43:19;;;;;;;5.82;3.35;;;;;;;;;;6185535;23;20073;-69
2023/09/06 03:45:54;;;;;;;7.68;3.25;;;;;;;;;;6185333;23;20073;-69
2023/09/06 03:48:25;;;;;;;8.15;3.20;;;;;;;;;;6185336;23;20080;-69
2023/09/06 03:50:52;;;;;;;9.48;3.40;;;;;;;;;;6185050;23;20507;-69
2023/09/06 03:53:18;;;;;;;6.40;3.22;;;;;;;;;;6185312;23;20060;-69
2023/09/06 03:55:46;;;;;;;5.07;2.85;;;;;;;;;;6185390;23;20068;-69
2023/09/06 03:58:12;;;;;;;8.75;3.15;;;;;;;;;;6185368;23;20068;-69
2023/09/06 04:00:41;;;;;;;8.15;3.60;;;;;;;;;;6185315;23;20076;-69
2023/09/06 04:03:08;;;;;;;5.47;3.55;;;;;;;;;;6185283;23;20068;-69
2023/09/06 04:05:34;;;;;;;6.40;3.50;;;;;;;;;;6184899;23;20520;-69
2023/09/06 04:08:06;;;;;;;4.43;3.03;;;;;;;;;;6185166;23;20068;-69
2023/09/06 04:10:44;;;;;;;5.88;3.50;;;;;;;;;;6185208;23;20488;-69
2023/09/06 04:13:11;;;;;;;6.00;3.22;;;;;;;;;;6185102;23;20080;-69
2023/09/06 04:15:38;;;;;;;5.45;3.03;;;;;;;;;;6185168;23;20080;-69
2023/09/06 04:18:09;;;;;;;8.00;3.10;;;;;;;;;;6185052;23;20096;-69
2023/09/06 04:20:36;;;;;;;5.55;3.40;;;;;;;;;;6184690;23;20069;-69
2023/09/06 04:23:04;;;;;;;5.07;3.50;;;;;;;;;;6185016;23;20080;-69
2023/09/06 04:25:41;;;;;;;5.63;3.05;;;;;;;;;;6184906;23;20084;-68
2023/09/06 04:28:07;;;;;;;6.72;3.60;;;;;;;;;;6184583;23;20080;-69
2023/09/06 04:30:35;;;;;;;5.72;3.35;;;;;;;;;;6184985;23;20075;-69
2023/09/06 04:33:03;;;;;;;5.40;3.67;;;;;;;;;;6185049;23;20064;-69
2023/09/06 04:35:48;;;;;;;5.80;3.28;;;;;;;;;;6184636;23;20524;-68
2023/09/06 04:38:18;;;;;;;8.35;3.58;;;;;;;;;;6184953;23;20072;-69
2023/09/06 04:40:46;;;;;;;5.43;3.63;;;;;;;;;;6185052;23;20072;-69
2023/09/06 04:43:12;;;;;;;5.47;3.90;;;;;;;;;;6184855;23;20319;-69
2023/09/06 04:45:39;;;;;;;7.18;3.70;;;;;;;;;;6184774;23;20088;-69
2023/09/06 04:48:08;;;;;;;8.82;3.85;;;;;;;;;;6184773;23;20434;-69
2023/09/06 04:50:38;;;;;;;4.53;3.63;;;;;;;;;;6184418;23;20072;-69
2023/09/06 04:53:05;;;;;;;5.38;3.80;;;;;;;;;;6158463;23;20080;-69
2023/09/06 04:55:35;;;;;;;4.80;3.22;;;;;;;;;;6184831;23;20072;-69
2023/09/06 04:58:02;;;;;;;4.43;3.47;;;;;;;;;;6184766;23;20084;-68
2023/09/06 05:00:35;;;;;;;5.13;3.75;;;;;;;;;;6184765;23;20076;-68
2023/09/06 05:03:01;;;;;;;12.15;3.75;;;;;;;;;;6184362;23;20089;-69
2023/09/06 05:05:28;;;;;;;7.10;4.32;;;;;;;;;;6184554;23;20099;-69
2023/09/06 05:07:54;;;;;;;6.68;3.75;;;;;;;;;;6184659;23;20492;-68
2023/09/06 05:10:20;;;;;;;6.60;4.10;;;;;;;;;;6184626;23;20073;-69
2023/09/06 05:12:47;;;;;;;5.72;4.00;;;;;;;;;;6184607;23;20069;-68
2023/09/06 05:15:13;;;;;;;6.38;4.20;;;;;;;;;;6184551;23;20084;-68
2023/09/06 05:17:40;;;;;;;6.60;3.80;;;;;;;;;;6183955;23;20071;-69
2023/09/06 05:20:25;;;;;;;5.93;3.67;;;;;;;;;;6184583;23;20072;-69
2023/09/06 05:22:52;;;;;;;5.63;3.88;;;;;;;;;;6158198;23;20163;-69
2023/09/06 05:25:18;;;;;;;5.90;3.92;;;;;;;;;;6184367;23;20119;-69
2023/09/06 05:27:45;;;;;;;6.07;3.50;;;;;;;;;;6184406;23;20076;-69
2023/09/06 05:30:11;;;;;;;5.97;3.67;;;;;;;;;;6184443;23;20503;-68
2023/09/06 05:32:38;;;;;;;4.68;3.80;;;;;;;;;;6184111;23;20080;-69
2023/09/06 05:35:04;;;;;;;9.95;4.28;;;;;;;;;;6184456;23;20084;-69
2023/09/06 05:37:31;;;;;;;5.75;4.03;;;;;;;;;;6184385;23;20385;-69
2023/09/06 05:39:57;;;;;;;7.35;4.07;;;;;;;;;;6184155;23;20108;-69
2023/09/06 05:42:24;;;;;;;8.45;4.15;;;;;;;;;;6184373;23;20068;-69
2023/09/06 05:44:50;;;;;;;7.15;4.20;;;;;;;;;;6158139;23;20099;-69
2023/09/06 05:47:16;;;;;;;6.72;3.72;;;;;;;;;;6183880;23;20068;-69
2023/09/06 05:49:43;;;;;;;10.90;4.13;;;;;;;;;;6184382;23;20139;-69
2023/09/06 05:52:09;;;;;;;6.72;3.72;;;;;;;;;;6184479;23;20064;-69
2023/09/06 05:54:35;;;;;;;6.97;4.13;;;;;;;;;;6184355;23;20080;-68
2023/09/06 05:57:04;;;;;;;8.52;4.18;;;;;;;;;;6184434;23;20069;-69
2023/09/06 05:59:30;;;;;;;13.13;4.78;;;;;;;;;;6184367;23;20068;-68
2023/09/06 06:01:57;;;;;;;8.68;4.05;;;;;;;;;;6183849;23;20188;-69
2023/09/06 06:04:24;;;;;;;6.75;4.10;;;;;;;;;;6184209;23;20080;-69
2023/09/06 06:06:50;;;;;;;10.25;4.65;;;;;;;;;;6178681;23;20104;-69
2023/09/06 06:09:16;;;;;;;10.00;4.45;;;;;;;;;;6183538;23;20499;-68
2023/09/06 06:11:43;;;;;;;8.98;4.47;;;;;;;;;;6178687;23;20005;-68
2023/09/06 06:14:09;;;;;;;10.80;3.95;;;;;;;;;;6182763;23;20076;-69
2023/09/06 06:16:36;;;;;;;6.90;4.40;;;;;;;;;;6182107;23;20068;-69
2023/09/06 06:19:03;;;;;;;6.13;3.83;;;;;;;;;;6183638;23;20072;-69
2023/09/06 06:21:31;;;;;;;7.50;3.97;;;;;;;;;;6157413;23;20081;-69
2023/09/06 06:23:58;;;;;;;8.85;4.20;;;;;;;;;;6183206;23;20107;-69
2023/09/06 06:26:25;;;;;;;9.40;4.55;;;;;;;;;;6183501;23;20077;-69
2023/09/06 06:28:51;;;;;;;5.13;4.13;;;;;;;;;;6183572;23;20395;-69
2023/09/06 06:31:17;;;;;;;7.65;4.13;;;;;;;;;;6182952;23;20443;-68
2023/09/06 06:33:44;;;;;;;9.52;5.00;;;;;;;;;;6183378;23;20080;-69
2023/09/06 06:36:10;;;;;;;7.43;4.25;;;;;;;;;;6183345;23;20076;-69
2023/09/06 06:38:36;;;;;;;9.40;4.80;;;;;;;;;;6182968;23;20076;-68
2023/09/06 06:41:03;;;;;;;9.25;4.35;;;;;;;;;;6181179;23;20084;-69
2023/09/06 06:43:33;;;;;;;11.38;4.57;;;;;;;;;;6182949;23;20446;-68
2023/09/06 06:46:04;;;;;;;7.60;4.45;;;;;;;;;;6183020;23;20040;-68
2023/09/06 06:48:31;;;;;;;8.70;4.30;;;;;;;;;;6183199;23;20154;-68
2023/09/06 06:50:57;;;;;;;13.70;4.00;;;;;;;;;;6183423;23;20084;-69
2023/09/06 06:53:23;;;;;;;10.20;4.43;;;;;;;;;;6184020;23;20076;-69
2023/09/06 06:55:50;;;;;;;11.25;4.75;;;;;;;;;;6184525;23;20079;-69
2023/09/06 06:58:16;;;;;;;7.57;4.05;;;;;;;;;;6184759;23;20076;-69
2023/09/06 07:00:42;;;;;;;10.23;4.25;;;;;;;;;;6184307;23;20434;-69
2023/09/06 07:03:09;;;;;;;6.40;4.32;;;;;;;;;;6184713;23;20088;-69
2023/09/06 07:05:37;;;;;;;6.68;4.10;;;;;;;;;;6184731;23;20092;-69
2023/09/06 07:08:05;;;;;;;8.00;4.22;;;;;;;;;;6158463;23;20072;-69
2023/09/06 07:10:31;;;;;;;9.05;4.20;;;;;;;;;;6184706;23;20079;-69
2023/09/06 07:12:57;;;;;;;6.47;4.45;;;;;;;;;;6183564;23;20060;-68
2023/09/06 07:15:24;;;;;;;7.18;4.00;;;;;;;;;;6184450;23;20087;-68
2023/09/06 07:17:50;;;;;;;8.15;4.22;;;;;;;;;;6183227;23;20068;-68
2023/09/06 07:20:16;;;;;;;6.10;4.30;;;;;;;;;;6183077;23;20080;-69
2023/09/06 07:22:43;;;;;;;8.82;4.07;;;;;;;;;;6157311;23;20100;-69
2023/09/06 07:25:10;;;;;;;11.00;4.07;;;;;;;;;;6157989;23;20438;-68
2023/09/06 07:27:37;;;;;;;8.75;3.92;;;;;;;;;;6183982;23;20491;-67
2023/09/06 07:30:04;;;;;;;7.00;4.32;;;;;;;;;;6183744;23;20068;-68
2023/09/06 07:32:30;;;;;;;10.32;4.45;;;;;;;;;;6184280;23;20084;-69
2023/09/06 07:34:57;;;;;;;10.32;4.00;;;;;;;;;;6183272;23;20084;-68
2023/09/06 07:37:23;;;;;;;10.20;4.15;;;;;;;;;;6184120;23;20091;-68
2023/09/06 07:39:49;;;;;;;7.25;4.05;;;;;;;;;;6183195;23;20076;-68
2023/09/06 07:42:16;;;;;;;7.22;3.90;;;;;;;;;;6183251;23;20076;-69
2023/09/06 07:44:42;;;;;;;7.85;4.10;;;;;;;;;;6183352;23;20431;-69
2023/09/06 07:47:08;;;;;;;9.75;3.75;;;;;;;;;;6183989;23;20127;-69
2023/09/06 07:49:35;;;;;;;9.55;3.97;;;;;;;;;;6183332;23;20076;-69
2023/09/06 07:52:04;;;;;;;13.13;3.97;;;;;;;;;;6183634;23;20072;-69
2023/09/06 07:54:31;;;;;;;7.53;3.38;;;;;;;;;;6183472;23;20080;-69
2023/09/06 07:56:58;;;;;;;8.68;3.28;;;;;;;;;;6182578;23;20080;-69
2023/09/06 07:59:25;;;;;;;8.65;3.28;;;;;;;;;;6183951;23;20068;-69
2023/09/06 08:01:53;;;;;;;7.53;3.33;;;;;;;;;;6182505;23;20511;-69
2023/09/06 08:04:19;;;;;;;7.05;3.38;;;;;;;;;;6184055;23;20108;-69
2023/09/06 08:06:46;;;;;;;8.52;3.00;;;;;;;;;;6184044;23;20088;-70
2023/09/06 08:09:13;;;;;;;9.13;3.35;;;;;;;;;;6182638;23;20080;-69
2023/09/06 08:11:39;;;;;;;6.47;3.88;;;;;;;;;;6183333;23;20080;-70
2023/09/06 08:14:05;;;;;;;6.60;2.97;;;;;;;;;;6157801;23;20075;-69
2023/09/06 08:16:32;;;;;;;6.85;3.38;;;;;;;;;;6183509;23;20532;-69
2023/09/06 08:18:58;;;;;;;9.80;2.90;;;;;;;;;;6157162;23;20416;-69
2023/09/06 08:21:24;;;;;;;10.80;2.90;;;;;;;;;;6183504;23;20072;-69
2023/09/06 08:23:51;;;;;;;4.13;2.63;;;;;;;;;;6183378;23;20384;-69
2023/09/06 08:26:18;;;;;;;6.00;3.03;;;;;;;;;;6182895;23;20527;-70
2023/09/06 08:28:44;;;;;;;6.90;2.80;;;;;;;;;;6183782;23;20080;-69
2023/09/06 08:31:10;;;;;;;5.82;2.95;;;;;;;;;;6182962;23;20155;-70
2023/09/06 08:33:37;;;;;;;5.03;2.92;;;;;;;;;;6182842;23;20076;-70
2023/09/06 08:36:03;;;;;;;5.80;3.10;;;;;;;;;;6183551;23;20397;-71
2023/09/06 08:38:29;;;;;;;3.92;2.70;;;;;;;;;;6183627;23;20091;-70
2023/09/06 08:40:56;;;;;;;7.70;2.75;;;;;;;;;;6180548;23;20080;-70
2023/09/06 08:43:23;;;;;;;4.30;2.88;;;;;;;;;;6183641;23;20076;-70
2023/09/06 08:45:51;;;;;;;5.10;3.22;;;;;;;;;;6183052;23;20080;-70
2023/09/06 08:48:18;;;;;;;12.05;2.88;;;;;;;;;;6183405;23;20131;-70
2023/09/06 08:50:46;;;;;;;11.18;3.20;;;;;;;;;;6183017;23;20483;-69
2023/09/06 08:53:16;;;;;;;7.03;2.90;;;;;;;;;;6183432;23;20067;-69
2023/09/06 08:55:43;;;;;;;11.45;3.15;;;;;;;;;;6182851;23;20068;-70
2023/09/06 08:58:10;;;;;;;4.95;2.80;;;;;;;;;;6183295;23;20088;-70
2023/09/06 09:00:38;;;;;;;5.28;2.60;;;;;;;;;;6183525;23;20116;-70
2023/09/06 09:03:04;;;;;;;3.17;2.40;;;;;;;;;;6179424;23;20072;-70
2023/09/06 09:05:30;;;;;;;3.95;2.70;;;;;;;;;;6182305;23;20089;-69
2023/09/06 09:08:00;;;;;;;5.65;2.50;;;;;;;;;;6182459;23;20145;-69
2023/09/06 09:10:28;;;;;;;;;;;;;;;;;;6156595;23;20380;-70
2023/09/06 09:12:56;;;;;;;2.92;2.38;;;;;;;;;;6182530;23;20069;-68
2023/09/06 09:15:25;;;;;;;5.25;2.70;;;;;;;;;;6182746;23;20077;-67
2023/09/06 09:17:52;;;;;;;4.53;2.67;;;;;;;;;;6183022;23;20160;-69
2023/09/06 09:20:19;;;;;;;4.72;2.70;;;;;;;;;;6182762;23;20076;-67
2023/09/06 09:22:46;;;;;;;5.38;2.60;;;;;;;;;;6182967;23;20091;-68
2023/09/06 09:25:15;;;;;;;3.38;2.45;;;;;;;;;;6182615;23;20017;-68
2023/09/06 09:27:45;;;;;;;5.90;2.70;;;;;;;;;;6182863;23;20072;-68
2023/09/06 09:30:12;;;;;;;2.95;2.50;;;;;;;;;;6182623;23;20072;-68
2023/09/06 09:32:42;;;;;;;3.10;2.58;;;;;;;;;;6181003;23;20072;-68
2023/09/06 09:35:10;;;;;;;2.75;2.47;;;;;;;;;;6182959;23;20507;-67
2023/09/06 09:37:37;;;;;;;3.95;2.40;;;;;;;;;;6182003;23;20507;-69
2023/09/06 09:40:32;;;;;;;4.65;2.50;;;;;;;;;;6182574;23;20075;-69
2023/09/06 09:43:00;;;;;;;7.57;2.53;;;;;;;;;;6182491;23;20075;-68
2023/09/06 09:45:30;;;;;;;2.80;2.40;;;;;;;;;;6182668;23;20017;-67
2023/09/06 09:47:57;;;;;;;3.00;2.55;;;;;;;;;;6181865;23;20084;-69
2023/09/06 09:50:29;;;;;;;5.10;2.60;;;;;;;;;;6181823;23;20080;-67
2023/09/06 09:52:56;;;;;;;5.63;2.55;;;;;;;;;;6181499;23;20076;-69
2023/09/06 09:55:31;;;;;;;6.45;2.78;;;;;;;;;;6180958;23;20080;-67
2023/09/06 09:58:00;;;;;;;3.35;2.65;;;;;;;;;;6182045;23;20084;-68
2023/09/06 10:00:28;;;;;;;4.00;2.63;;;;;;;;;;6181537;23;20064;-68
2023/09/06 10:02:58;;;;;;;4.97;2.90;;;;;;;;;;6182199;23;20072;-68
2023/09/06 10:05:28;;;;;;;5.40;2.40;;;;;;;;;;6155654;23;20092;-68
2023/09/06 10:07:55;;;;;;;3.53;2.40;;;;;;;;;;6182177;23;20084;-68
2023/09/06 10:10:22;;;;;;;6.38;2.67;;;;;;;;;;6183164;23;20083;-68
2023/09/06 10:12:49;;;;;;;2.83;2.38;;;;;;;;;;6183421;23;20093;-68
2023/09/06 10:15:23;;;;;;;5.60;2.50;;;;;;;;;;6181306;23;20091;-68
2023/09/06 10:17:55;;;;;;;4.68;2.50;;;;;;;;;;6182945;23;20076;-68
2023/09/06 10:20:27;;;;;;;9.15;2.63;;;;;;;;;;6156564;23;20563;-68
2023/09/06 10:22:56;;;;;;;8.95;2.90;;;;;;;;;;6182397;23;20084;-69
2023/09/06 10:25:25;;;;;;;7.00;2.75;;;;;;;;;;6183207;23;20095;-68
2023/09/06 10:27:52;;;;;;;3.72;2.53;;;;;;;;;;6183283;23;20378;-68
2023/09/06 10:30:28;;;;;;;3.80;2.35;;;;;;;;;;6184521;23;20076;-68
2023/09/06 10:32:55;;;;;;;2.45;2.25;;;;;;;;;;6184490;23;20068;-68
2023/09/06 10:35:21;;;;;;;6.03;2.45;;;;;;;;;;6184592;23;20072;-67
2023/09/06 10:38:02;;;;;;;10.43;2.58;;;;;;;;;;6184191;23;20076;-68
2023/09/06 10:40:49;;;;;;;4.22;2.90;;;;;;;;;;6184676;23;20495;-68
2023/09/06 10:43:38;;;;;;;8.80;2.67;;;;;;;;;;6165021;23;20080;-69
2023/09/06 10:46:05;;;;;;;4.07;2.50;;;;;;;;;;6065190;23;20100;-68
2023/09/06 10:48:31;;;;;;;7.07;2.50;;;;;;;;;;6041140;23;20079;-68
2023/09/06 10:51:09;;;;;;;2.92;2.38;;;;;;;;;;6064762;23;20077;-68
2023/09/06 10:53:36;;;;;;;5.90;2.60;;;;;;;;;;6065229;23;20074;-69
2023/09/06 10:56:03;;;;;;;6.50;2.80;;;;;;;;;;6041303;23;20509;-68
2023/09/06 10:58:31;;;;;;;3.72;2.78;;;;;;;;;;6064866;23;20403;-67
2023/09/06 11:01:12;;;;;;;6.07;2.50;;;;;;;;;;6065275;23;20549;-69
2023/09/06 11:03:39;;;;;;;2.95;2.40;;;;;;;;;;6064031;23;20110;-68
2023/09/06 11:06:05;;;;;;;5.35;2.60;;;;;;;;;;6040348;23;20515;-68
2023/09/06 11:08:32;;;;;;;6.82;2.63;;;;;;;;;;6064873;23;20082;-68
2023/09/06 11:11:00;;;;;;;3.38;2.60;;;;;;;;;;6064987;23;20090;-68
2023/09/06 11:13:29;;;;;;;3.78;2.60;;;;;;;;;;6064934;23;20085;-69
2023/09/06 11:15:55;;;;;;;3.93;2.37;;;;;;;;;;6065145;23;20078;-68
2023/09/06 11:18:21;;;;;;;4.53;2.50;;;;;;;;;;6065249;23;20294;-69
2023/09/06 11:20:49;;;;;;;4.97;2.92;;;;;;;;;;6065015;23;20086;-69
2023/09/06 11:23:19;;;;;;;4.95;2.53;;;;;;;;;;6132099;23;20091;-69
2023/09/06 11:25:45;;;;;;;8.50;2.65;;;;;;;;;;6184663;23;20418;-69
2023/09/06 11:28:17;;;;;;;4.47;2.47;;;;;;;;;;6184838;23;20072;-68
2023/09/06 11:30:46;;;;;;;5.88;2.35;;;;;;;;;;6158600;23;20447;-68
2023/09/06 11:33:13;;;;;;;4.30;2.60;;;;;;;;;;6184591;23;20068;-69
2023/09/06 11:35:45;;;;;;;6.88;2.47;;;;;;;;;;6184348;23;20391;-68
2023/09/06 11:38:12;;;;;;;3.40;2.45;;;;;;;;;;6184546;23;20145;-68
2023/09/06 11:40:41;;;;;;;4.45;2.30;;;;;;;;;;6182504;23;20539;-68
2023/09/06 11:43:10;;;;;;;6.20;2.40;;;;;;;;;;6157708;23;20076;-68
2023/09/06 11:45:38;;;;;;;3.53;2.80;;;;;;;;;;6184353;23;20080;-69
2023/09/06 11:48:07;;;;;;;7.72;2.70;;;;;;;;;;6183952;23;20409;-68
2023/09/06 11:50:42;;;;;;;7.82;2.63;;;;;;;;;;6183685;23;20076;-68
2023/09/06 11:53:10;;;;;;;5.05;2.42;;;;;;;;;;6157558;23;20404;-69
2023/09/06 11:55:42;;;;;;;5.25;2.45;;;;;;;;;;6183919;23;20531;-68
2023/09/06 11:58:20;;;;;;;3.28;2.58;;;;;;;;;;6183886;23;20076;-69
2023/09/06 12:00:48;;;;;;;6.15;2.40;;;;;;;;;;6184039;23;20068;-69
2023/09/06 12:03:16;;;;;;;4.20;2.50;;;;;;;;;;6157392;23;20088;-69
2023/09/06 12:05:43;;;;;;;4.93;2.72;;;;;;;;;;6183436;23;20080;-68
2023/09/06 12:08:13;;;;;;;6.10;2.40;;;;;;;;;;6183294;23;20076;-69
2023/09/06 12:10:40;;;;;;;3.00;2.10;;;;;;;;;;6183124;23;20441;-68
2023/09/06 12:13:07;;;;;;;3.53;2.25;;;;;;;;;;6183663;23;20076;-69
2023/09/06 12:15:33;;;;;;;13.05;3.17;;;;;;;;;;6182337;23;20084;-68
2023/09/06 12:18:03;;;;;;;9.15;2.70;;;;;;;;;;6182918;23;20141;-69
2023/09/06 12:20:29;;;;;;;2.58;2.22;;;;;;;;;;6182998;23;20071;-69
2023/09/06 12:22:56;;;;;;;5.60;2.25;;;;;;;;;;6183553;23;20092;-70
2023/09/06 12:25:23;;;;;;;8.43;2.70;;;;;;;;;;6183547;23;20080;-69
2023/09/06 12:27:49;;;;;;;5.55;2.50;;;;;;;;;;6183872;23;20080;-69
2023/09/06 12:30:21;;;;;;;4.72;2.13;;;;;;;;;;6183379;23;20071;-69
2023/09/06 12:32:47;;;;;;;4.93;2.50;;;;;;;;;;6183257;23;20388;-68
2023/09/06 12:35:13;;;;;;;4.05;2.42;;;;;;;;;;6183351;23;20534;-69
2023/09/06 12:37:40;;;;;;;3.15;2.13;;;;;;;;;;6183483;23;20439;-69
2023/09/06 12:40:13;;;;;;;3.72;2.10;;;;;;;;;;6182735;23;20128;-69
2023/09/06 12:42:43;;;;;;;7.40;2.70;;;;;;;;;;6183374;23;20124;-70
2023/09/06 12:45:09;;;;;;;3.03;2.40;;;;;;;;;;6156870;23;20384;-70
2023/09/06 12:47:37;;;;;;;8.15;2.38;;;;;;;;;;6182811;23;20369;-69
2023/09/06 12:50:05;;;;;;;4.22;2.72;;;;;;;;;;6182998;23;20072;-69
2023/09/06 12:52:32;;;;;;;4.28;2.55;;;;;;;;;;6183174;23;20080;-69
2023/09/06 12:54:59;;;;;;;9.13;2.78;;;;;;;;;;6183322;23;20396;-69
2023/09/06 12:57:26;;;;;;;3.13;2.20;;;;;;;;;;6156265;23;20108;-70
2023/09/06 12:59:59;;;;;;;8.02;3.10;;;;;;;;;;6182948;23;20064;-70
2023/09/06 13:02:25;;;;;;;3.75;2.67;;;;;;;;;;6182572;23;20076;-70
2023/09/06 13:04:52;;;;;;;6.97;2.95;;;;;;;;;;6183801;23;20097;-69
2023/09/06 13:07:18;;;;;;;8.70;2.60;;;;;;;;;;6183238;23;20083;-69
2023/09/06 13:09:45;;;;;;;3.15;2.30;;;;;;;;;;6183268;23;20076;-69
2023/09/06 13:12:11;;;;;;;7.68;2.35;;;;;;;;;;6183246;23;20083;-70
2023/09/06 13:14:37;;;;;;;4.50;2.50;;;;;;;;;;6183015;23;20087;-69
2023/09/06 13:17:04;;;;;;;3.40;2.30;;;;;;;;;;6182703;23;20100;-70
2023/09/06 13:19:30;;;;;;;5.40;2.60;;;;;;;;;;6183493;23;20076;-69
2023/09/06 13:21:57;;;;;;;7.03;2.45;;;;;;;;;;6182948;23;20442;-69
2023/09/06 13:24:23;;;;;;;3.75;2.60;;;;;;;;;;6183044;23;20088;-69
2023/09/06 13:26:49;;;;;;;6.55;2.28;;;;;;;;;;6182622;23;20407;-69
2023/09/06 13:29:18;;;;;;;4.32;2.20;;;;;;;;;;6183229;23;20083;-69
2023/09/06 13:31:44;;;;;;;3.95;2.80;;;;;;;;;;6182619;23;20393;-68
2023/09/06 13:34:11;;;;;;;3.83;2.35;;;;;;;;;;6183184;23;20084;-69
2023/09/06 13:36:37;;;;;;;5.25;2.30;;;;;;;;;;6182691;23;20471;-69
2023/09/06 13:39:04;;;;;;;5.75;2.75;;;;;;;;;;6183097;23;20072;-70
2023/09/06 13:41:30;;;;;;;3.67;2.47;;;;;;;;;;6182559;23;20397;-69
2023/09/06 13:43:57;;;;;;;3.55;2.45;;;;;;;;;;6183093;23;20085;-68
2023/09/06 13:46:23;;;;;;;2.50;2.30;;;;;;;;;;6182483;23;20075;-68
2023/09/06 13:48:49;;;;;;;2.60;2.40;;;;;;;;;;6182842;23;20080;-67
2023/09/06 13:51:16;;;;;;;4.25;2.30;;;;;;;;;;6182696;23;20080;-68
2023/09/06 13:53:43;;;;;;;5.40;2.30;;;;;;;;;;6182698;23;20084;-68
2023/09/06 13:56:09;;;;;;;8.05;2.50;;;;;;;;;;6155946;23;20012;-70
2023/09/06 13:58:36;;;;;;;4.13;2.45;;;;;;;;;;6181540;23;20064;-69
2023/09/06 14:01:02;;;;;;;5.35;2.50;;;;;;;;;;6157623;23;20080;-69
2023/09/06 14:03:28;;;;;;;13.20;2.20;;;;;;;;;;6185055;23;20068;-68
2023/09/06 14:05:55;;;;;;;6.85;2.50;;;;;;;;;;6185323;23;20096;-69
2023/09/06 14:08:22;;;;;;;5.93;2.40;;;;;;;;;;6184757;23;20077;-68
2023/09/06 14:10:52;;;;;;;7.75;2.65;;;;;;;;;;6184494;23;20084;-69
2023/09/06 14:13:20;;;;;;;6.25;2.70;;;;;;;;;;6158536;23;20438;-69
2023/09/06 14:15:47;;;;;;;3.63;2.50;;;;;;;;;;6184361;23;20099;-68
2023/09/06 14:18:13;;;;;;;8.43;2.42;;;;;;;;;;6185277;23;20069;-69
2023/09/06 14:20:39;;;;;;;6.72;2.90;;;;;;;;;;6184665;23;20087;-69
2023/09/06 14:23:05;;;;;;;4.80;2.25;;;;;;;;;;6184349;23;20096;-69
2023/09/06 14:25:32;;;;;;;4.82;2.70;;;;;;;;;;6184881;23;20072;-69
2023/09/06 14:27:58;;;;;;;5.30;2.58;;;;;;;;;;6184532;23;20087;-69
2023/09/06 14:30:24;;;;;;;5.80;2.70;;;;;;;;;;6183924;23;20076;-68
2023/09/06 14:32:51;;;;;;;5.65;2.75;;;;;;;;;;6184338;23;20068;-68
2023/09/06 14:35:17;;;;;;;10.02;2.63;;;;;;;;;;6185279;23;20019;-68
2023/09/06 14:37:43;;;;;;;7.15;2.40;;;;;;;;;;6185098;23;20068;-69
2023/09/06 14:40:10;;;;;;;2.90;2.60;;;;;;;;;;6185782;23;20084;-68
2023/09/06 14:42:36;;;;;;;7.22;2.70;;;;;;;;;;6185678;23;20450;-69
2023/09/06 14:45:03;;;;;;;6.38;2.40;;;;;;;;;;6185305;23;20082;-68
2023/09/06 14:47:29;;;;;;;4.78;2.58;;;;;;;;;;6185656;23;20072;-69